Time;durP1;ratioP1;P1;durP2;ratioP2;P2;SDS_P1;SDS_P2;PMS_P1;PMS_P2;Temp;Humidity;BMP_temperature;BMP_pressure;BME280_temperature;BME280_humidity;BME280_pressure;Samples;Min_cycle;Max_cycle;Signal;HPM_P1;HPM_P2
2022/06/24 00:02:01;;;;;;;7.90;7.40;;;25.60;70.80;;;;;;5136970;27;20419;-70
2022/06/24 00:04:30;;;;;;;8.73;8.07;;;25.60;70.80;;;;;;5136162;27;20404;-70
2022/06/24 00:06:56;;;;;;;7.70;7.30;;;25.60;70.70;;;;;;5128636;27;20436;-70
2022/06/24 00:09:26;;;;;;;8.10;7.60;;;25.70;71.00;;;;;;5116057;27;20430;-70
2022/06/24 00:12:07;;;;;;;7.90;7.40;;;25.70;70.40;;;;;;5122020;27;20429;-70
2022/06/24 00:14:38;;;;;;;9.43;8.40;;;25.70;71.00;;;;;;5114380;28;20463;-70
2022/06/24 00:17:06;;;;;;;8.47;7.87;;;25.60;70.80;;;;;;5115322;28;20517;-70
2022/06/24 00:19:35;;;;;;;8.43;7.93;;;25.60;70.90;;;;;;5118268;27;20508;-70
2022/06/24 00:22:12;;;;;;;8.93;8.40;;;25.60;69.70;;;;;;5136748;27;20452;-70
2022/06/24 00:24:39;;;;;;;9.20;8.40;;;25.60;69.60;;;;;;5124988;27;20441;-69
2022/06/24 00:27:22;;;;;;;8.20;7.63;;;25.60;69.10;;;;;;5095445;28;20464;-70
2022/06/24 00:29:54;;;;;;;8.03;7.43;;;25.50;68.80;;;;;;5096757;27;20407;-70
2022/06/24 00:32:33;;;;;;;8.00;7.50;;;25.40;69.10;;;;;;5135326;27;20784;-70
2022/06/24 00:35:09;;;;;;;7.17;6.77;;;25.50;71.20;;;;;;5135912;27;20448;-69
2022/06/24 00:37:36;;;;;;;6.97;6.57;;;25.50;71.00;;;;;;5135720;27;20444;-69
2022/06/24 00:40:11;;;;;;;7.40;7.00;;;25.60;70.60;;;;;;5135385;27;20413;-69
2022/06/24 00:42:38;;;;;;;8.10;7.50;;;25.60;69.70;;;;;;5112738;27;21073;-70
2022/06/24 00:45:11;;;;;;;7.17;6.67;;;25.60;69.50;;;;;;5115508;28;20413;-69
2022/06/24 00:47:42;;;;;;;7.60;7.10;;;25.50;67.70;;;;;;5114847;28;20509;-70
2022/06/24 00:50:23;;;;;;;6.70;6.30;;;25.50;67.70;;;;;;5115598;27;20736;-69
2022/06/24 00:52:52;;;;;;;7.27;6.57;;;25.50;67.40;;;;;;5136044;27;20944;-70
2022/06/24 00:55:34;;;;;;;7.63;7.13;;;25.40;67.40;;;;;;5135228;27;20463;-74
2022/06/24 00:58:01;;;;;;;8.20;7.40;;;25.40;68.10;;;;;;5134078;27;20423;-70
2022/06/24 01:00:32;;;;;;;8.50;7.80;;;25.40;69.60;;;;;;5134970;27;20432;-70
2022/06/24 01:02:58;;;;;;;9.03;8.33;;;25.30;71.10;;;;;;5135887;27;20393;-70
2022/06/24 01:05:24;;;;;;;8.73;8.07;;;25.30;74.40;;;;;;5134619;27;20422;-70
2022/06/24 01:07:50;;;;;;;8.43;7.83;;;25.20;78.90;;;;;;5135676;27;20465;-70
2022/06/24 01:10:16;;;;;;;8.20;7.63;;;25.20;84.10;;;;;;5128354;27;20448;-73
2022/06/24 01:12:42;;;;;;;8.10;7.07;;;25.10;89.10;;;;;;5114572;28;20178;-70
2022/06/24 01:15:08;;;;;;;7.67;6.97;;;25.10;91.90;;;;;;5123037;27;20677;-70
2022/06/24 01:17:34;;;;;;;8.50;7.67;;;25.00;93.20;;;;;;5134633;27;20200;-69
2022/06/24 01:20:00;;;;;;;7.33;6.60;;;25.00;93.90;;;;;;5135182;27;20469;-69
2022/06/24 01:22:26;;;;;;;12.50;5.93;;;24.90;95.20;;;;;;5134691;27;20393;-70
2022/06/24 01:24:53;;;;;;;7.10;6.30;;;24.80;95.30;;;;;;5135168;27;20469;-69
2022/06/24 01:27:19;;;;;;;7.30;6.70;;;24.80;95.90;;;;;;5134715;27;20824;-73
2022/06/24 01:29:46;;;;;;;6.43;5.93;;;24.70;96.10;;;;;;5133295;27;20424;-69
2022/06/24 01:32:12;;;;;;;6.83;6.10;;;24.60;96.30;;;;;;5135240;27;20171;-70
2022/06/24 01:34:38;;;;;;;8.40;5.90;;;24.50;96.30;;;;;;5134311;27;20463;-70
2022/06/24 01:37:04;;;;;;;6.83;5.63;;;24.50;96.40;;;;;;5134899;27;20859;-69
2022/06/24 01:39:31;;;;;;;7.07;5.73;;;24.40;96.20;;;;;;5134030;27;20773;-70
2022/06/24 01:41:58;;;;;;;6.40;5.67;;;24.10;96.30;;;;;;5064149;27;20512;-70
2022/06/24 01:44:24;;;;;;;9.80;5.20;;;24.00;96.50;;;;;;5127637;27;20458;-70
2022/06/24 01:46:51;;;;;;;4.90;4.60;;;23.90;96.50;;;;;;5112319;28;20466;-69
2022/06/24 01:49:18;;;;;;;5.60;4.40;;;23.70;96.90;;;;;;5121455;27;20432;-70
2022/06/24 01:51:47;;;;;;;6.77;5.60;;;23.80;96.90;;;;;;5134513;27;20424;-69
2022/06/24 01:54:13;;;;;;;5.67;5.27;;;23.80;96.80;;;;;;5133429;27;20456;-69
2022/06/24 01:56:39;;;;;;;5.00;4.60;;;23.80;96.50;;;;;;5133902;27;20416;-69
2022/06/24 01:59:05;;;;;;;5.67;4.30;;;23.90;96.30;;;;;;5133048;27;20497;-69
2022/06/24 02:01:31;;;;;;;4.50;4.20;;;23.90;96.20;;;;;;5132330;27;20414;-69
2022/06/24 02:03:57;;;;;;;5.10;4.60;;;23.90;96.40;;;;;;5133853;27;20202;-73
2022/06/24 02:06:22;;;;;;;6.37;4.70;;;23.80;97.30;;;;;;5133752;27;20194;-73
2022/06/24 02:08:49;;;;;;;5.73;4.53;;;23.70;97.70;;;;;;5133349;27;20386;-72
2022/06/24 02:14:03;;;;;;;6.83;5.00;;;23.80;97.80;;;;;;5113178;28;20468;-69
2022/06/24 02:16:29;;;;;;;5.17;4.20;;;23.80;98.10;;;;;;5112743;28;20414;-69
2022/06/24 02:18:55;;;;;;;4.90;4.50;;;23.80;98.30;;;;;;5114755;27;20762;-70
2022/06/24 02:21:22;;;;;;;5.67;5.17;;;23.80;98.50;;;;;;5133970;27;20219;-73
2022/06/24 02:23:48;;;;;;;4.10;3.77;;;23.80;99.00;;;;;;5133935;27;20413;-69
2022/06/24 02:26:14;;;;;;;4.33;4.03;;;23.80;99.20;;;;;;5132732;27;20485;-69
2022/06/24 02:28:40;;;;;;;4.17;3.87;;;23.70;99.50;;;;;;5132986;27;20412;-69
2022/06/24 02:31:06;;;;;;;6.33;4.43;;;23.60;99.70;;;;;;5132224;27;20179;-70
2022/06/24 02:33:32;;;;;;;4.57;4.27;;;23.60;99.90;;;;;;5133185;27;20213;-69
2022/06/24 02:35:58;;;;;;;4.67;4.27;;;23.60;99.90;;;;;;5133852;27;20479;-69
2022/06/24 02:38:24;;;;;;;5.60;5.00;;;23.60;99.90;;;;;;5133099;27;20767;-73
2022/06/24 02:40:51;;;;;;;5.90;5.00;;;23.50;99.90;;;;;;5126385;27;20793;-69
2022/06/24 02:43:37;;;;;;;4.60;4.20;;;23.50;99.90;;;;;;5111904;28;20413;-69
2022/06/24 02:46:05;;;;;;;6.20;5.60;;;23.60;99.90;;;;;;5113386;28;20405;-69
2022/06/24 02:48:32;;;;;;;4.40;4.10;;;23.50;99.90;;;;;;5112441;28;20401;-69
2022/06/24 02:51:00;;;;;;;4.20;3.90;;;23.50;99.90;;;;;;5126712;27;20520;-69
2022/06/24 02:53:28;;;;;;;6.03;3.90;;;23.50;99.90;;;;;;5132842;27;20419;-70
2022/06/24 02:55:57;;;;;;;4.47;4.00;;;23.50;99.90;;;;;;5129319;27;20459;-69
2022/06/24 02:58:23;;;;;;;4.47;4.07;;;23.50;99.90;;;;;;5133167;27;20417;-73
2022/06/24 03:00:49;;;;;;;5.57;4.20;;;23.50;99.90;;;;;;5132920;27;20416;-70
2022/06/24 03:03:17;;;;;;;11.40;4.80;;;23.50;99.90;;;;;;5131755;27;20417;-69
2022/06/24 03:05:43;;;;;;;8.77;5.40;;;23.50;99.90;;;;;;5132923;27;20451;-69
2022/06/24 03:08:10;;;;;;;4.90;4.60;;;23.40;99.90;;;;;;5133413;27;20417;-69
2022/06/24 03:10:37;;;;;;;8.20;5.20;;;23.40;99.90;;;;;;5124790;27;20430;-69
2022/06/24 03:13:03;;;;;;;5.43;4.40;;;23.30;99.90;;;;;;5115853;28;20429;-69
2022/06/24 03:15:30;;;;;;;6.20;5.47;;;23.30;99.90;;;;;;5116244;27;20840;-70
2022/06/24 03:17:56;;;;;;;7.30;4.73;;;23.30;99.90;;;;;;5112578;28;20512;-69
2022/06/24 03:20:22;;;;;;;6.90;5.53;;;23.30;99.90;;;;;;5129960;27;20856;-70
2022/06/24 03:22:48;;;;;;;5.20;4.70;;;23.30;99.90;;;;;;5132764;27;20507;-69
2022/06/24 03:25:14;;;;;;;7.17;5.60;;;23.30;99.90;;;;;;5132989;27;20412;-70
2022/06/24 03:27:40;;;;;;;6.83;4.80;;;23.30;99.90;;;;;;5132439;28;20810;-69
2022/06/24 03:30:08;;;;;;;5.73;5.23;;;23.30;99.90;;;;;;5133190;28;20223;-70
2022/06/24 03:32:34;;;;;;;5.43;4.80;;;23.30;99.90;;;;;;5129189;28;20217;-70
2022/06/24 03:35:01;;;;;;;5.37;4.87;;;23.30;99.90;;;;;;5132909;27;20460;-67
2022/06/24 03:37:31;;;;;;;5.97;5.47;;;23.30;99.90;;;;;;5132893;28;20825;-69
2022/06/24 03:39:57;;;;;;;7.03;6.37;;;23.30;99.90;;;;;;5092575;28;20793;-69
2022/06/24 03:42:23;;;;;;;8.30;6.70;;;23.30;99.90;;;;;;5109327;28;20460;-69
2022/06/24 03:44:49;;;;;;;8.60;7.90;;;23.30;99.90;;;;;;5131018;28;20540;-68
2022/06/24 03:47:15;;;;;;;7.17;6.50;;;23.30;99.90;;;;;;5129669;28;20257;-69
2022/06/24 03:49:41;;;;;;;8.53;7.73;;;23.30;99.90;;;;;;5091871;28;20202;-69
2022/06/24 03:52:07;;;;;;;8.43;7.67;;;23.20;99.90;;;;;;5092566;28;20222;-69
2022/06/24 03:54:34;;;;;;;8.10;7.33;;;23.10;99.90;;;;;;5091778;28;20457;-68
2022/06/24 03:56:59;;;;;;;7.97;7.33;;;23.10;99.90;;;;;;5119040;28;20485;-68
2022/06/24 03:59:26;;;;;;;8.60;7.93;;;23.10;99.90;;;;;;5132996;28;20420;-72
2022/06/24 04:01:51;;;;;;;9.03;8.30;;;23.10;99.90;;;;;;5118229;28;20237;-68
2022/06/24 04:04:17;;;;;;;9.63;8.83;;;23.10;99.90;;;;;;5125808;28;20924;-68
2022/06/24 04:06:43;;;;;;;9.50;8.80;;;23.00;99.90;;;;;;5123813;27;20183;-68
2022/06/24 04:09:11;;;;;;;10.83;9.90;;;23.00;99.90;;;;;;5133330;28;20179;-68
2022/06/24 04:11:37;;;;;;;10.37;9.47;;;23.00;99.90;;;;;;5117783;28;20648;-69
2022/06/24 04:14:03;;;;;;;9.43;8.60;;;23.00;99.90;;;;;;5131855;28;20555;-69
2022/06/24 04:16:28;;;;;;;10.10;9.40;;;23.00;99.90;;;;;;5134795;27;20183;-69
2022/06/24 04:18:54;;;;;;;11.43;10.50;;;23.00;99.90;;;;;;5136593;27;20420;-69
2022/06/24 04:21:21;;;;;;;10.37;9.47;;;23.00;99.90;;;;;;5131001;27;20245;-69
2022/06/24 04:23:50;;;;;;;10.47;9.50;;;23.00;99.90;;;;;;5136295;27;20190;-69
2022/06/24 04:26:18;;;;;;;11.57;10.77;;;23.00;99.90;;;;;;5136905;27;20461;-69
2022/06/24 04:28:44;;;;;;;11.33;10.43;;;23.00;99.90;;;;;;5134634;27;20519;-68
2022/06/24 04:31:09;;;;;;;11.00;10.10;;;23.00;99.90;;;;;;5136505;27;20495;-69
2022/06/24 04:33:35;;;;;;;16.53;14.93;;;23.10;99.90;;;;;;5129588;27;20443;-70
2022/06/24 04:36:01;;;;;;;10.97;10.10;;;23.10;99.90;;;;;;5115764;28;20235;-68
2022/06/24 04:38:26;;;;;;;10.13;9.23;;;23.00;99.90;;;;;;5106869;28;20188;-72
2022/06/24 04:40:52;;;;;;;10.13;9.40;;;23.00;99.90;;;;;;5126931;27;20258;-69
2022/06/24 04:43:18;;;;;;;10.37;9.50;;;22.90;99.90;;;;;;5135320;27;20590;-69
2022/06/24 04:45:45;;;;;;;21.87;19.60;;;22.80;99.90;;;;;;5121456;27;20240;-69
2022/06/24 04:48:11;;;;;;;9.20;8.60;;;22.80;99.90;;;;;;5127099;27;20501;-68
2022/06/24 04:50:36;;;;;;;18.27;16.47;;;22.60;99.90;;;;;;5129225;27;20944;-69
2022/06/24 04:53:03;;;;;;;11.60;10.67;;;22.50;99.90;;;;;;5135980;27;20405;-68
2022/06/24 04:55:29;;;;;;;9.10;8.33;;;22.50;99.90;;;;;;5130409;27;20217;-72
2022/06/24 04:57:55;;;;;;;10.83;9.80;;;22.50;99.90;;;;;;5133582;27;20477;-69
2022/06/24 05:00:21;;;;;;;10.13;9.23;;;22.50;99.90;;;;;;5104535;27;20809;-68
2022/06/24 05:02:47;;;;;;;9.20;8.40;;;22.20;99.90;;;;;;5131811;27;20209;-69
2022/06/24 05:05:14;;;;;;;8.17;7.50;;;22.20;99.90;;;;;;5114862;28;20541;-68
2022/06/24 05:07:40;;;;;;;8.73;8.10;;;22.20;99.90;;;;;;5127717;27;20425;-69
2022/06/24 05:10:07;;;;;;;9.60;8.50;;;22.20;99.90;;;;;;5135354;27;20915;-68
2022/06/24 05:12:32;;;;;;;9.87;9.10;;;22.30;99.90;;;;;;5125299;27;20433;-72
2022/06/24 05:14:59;;;;;;;9.13;8.33;;;22.30;99.90;;;;;;5128551;27;20531;-69
2022/06/24 05:17:26;;;;;;;9.60;8.80;;;22.30;99.90;;;;;;5134935;27;20190;-72
2022/06/24 05:19:52;;;;;;;10.37;9.43;;;22.40;99.90;;;;;;5132759;27;20421;-69
2022/06/24 05:22:19;;;;;;;10.13;9.33;;;22.40;99.90;;;;;;5116186;27;20423;-69
2022/06/24 05:24:44;;;;;;;9.30;8.30;;;22.40;99.90;;;;;;5121697;27;20436;-69
2022/06/24 05:27:10;;;;;;;8.33;7.67;;;22.30;99.90;;;;;;5119113;27;20433;-68
2022/06/24 05:29:36;;;;;;;7.23;6.67;;;22.30;99.90;;;;;;5133894;27;20596;-69
2022/06/24 05:32:02;;;;;;;11.30;7.00;;;22.30;99.90;;;;;;5109824;27;20433;-69
2022/06/24 05:34:28;;;;;;;6.70;6.10;;;22.30;99.90;;;;;;5117372;27;20256;-69
2022/06/24 05:36:54;;;;;;;8.27;6.60;;;22.20;99.90;;;;;;5121088;27;20989;-69
2022/06/24 05:39:19;;;;;;;6.63;6.07;;;22.30;99.90;;;;;;5135125;27;20181;-67
2022/06/24 05:41:45;;;;;;;5.60;5.20;;;22.30;99.90;;;;;;5133613;27;20194;-68
2022/06/24 05:44:11;;;;;;;6.70;6.10;;;22.30;99.90;;;;;;5112652;27;20232;-68
2022/06/24 05:46:38;;;;;;;7.70;7.00;;;22.30;99.90;;;;;;5129158;27;20178;-69
2022/06/24 05:49:04;;;;;;;6.13;5.63;;;22.30;99.90;;;;;;5120711;27;20457;-68
2022/06/24 05:51:30;;;;;;;5.63;5.33;;;22.30;99.90;;;;;;5119409;27;20436;-69
2022/06/24 05:56:41;;;;;;;6.67;5.60;;;22.50;99.90;;;;;;5124429;27;20444;-69
2022/06/24 05:59:06;;;;;;;5.70;5.23;;;22.50;99.90;;;;;;5107887;27;20452;-68
2022/06/24 06:01:32;;;;;;;6.37;5.77;;;22.60;99.90;;;;;;5126319;27;20184;-68
2022/06/24 06:04:00;;;;;;;5.97;5.53;;;22.60;99.90;;;;;;5110944;28;20179;-68
2022/06/24 06:06:26;;;;;;;5.07;4.77;;;22.80;99.90;;;;;;5119027;27;20481;-69
2022/06/24 06:08:52;;;;;;;7.97;5.07;;;22.80;99.90;;;;;;5113032;28;20190;-68
2022/06/24 06:11:20;;;;;;;7.77;6.20;;;22.80;99.90;;;;;;5111562;27;20176;-67
2022/06/24 06:13:47;;;;;;;5.23;4.73;;;22.90;99.90;;;;;;5113477;28;20176;-67
2022/06/24 06:16:13;;;;;;;5.10;4.80;;;22.90;99.90;;;;;;5114182;28;20409;-67
2022/06/24 06:18:39;;;;;;;7.40;5.13;;;22.90;99.90;;;;;;5112948;28;20505;-67
2022/06/24 06:21:09;;;;;;;4.83;4.37;;;22.90;99.90;;;;;;5125220;27;20226;-66
2022/06/24 06:23:36;;;;;;;4.57;4.27;;;22.80;99.90;;;;;;5133775;27;20421;-67
2022/06/24 06:26:04;;;;;;;5.20;4.80;;;22.80;99.90;;;;;;5131610;27;20432;-67
2022/06/24 06:28:30;;;;;;;4.37;4.07;;;22.70;99.90;;;;;;5107145;28;20795;-67
2022/06/24 06:30:56;;;;;;;4.77;4.37;;;22.70;99.90;;;;;;5111617;27;20427;-67
2022/06/24 06:33:22;;;;;;;4.60;4.20;;;22.60;99.90;;;;;;5131406;27;20412;-67
2022/06/24 06:35:48;;;;;;;4.53;4.23;;;22.60;99.90;;;;;;5113361;28;20226;-67
2022/06/24 06:38:15;;;;;;;5.10;4.17;;;22.50;99.90;;;;;;5113131;28;20176;-67
2022/06/24 06:40:40;;;;;;;4.63;4.37;;;22.50;99.90;;;;;;5131812;27;20183;-67
2022/06/24 06:43:07;;;;;;;4.37;4.07;;;22.50;99.90;;;;;;5134267;27;20430;-67
2022/06/24 06:45:37;;;;;;;5.27;5.00;;;22.50;99.90;;;;;;5118855;27;20187;-67
2022/06/24 06:48:04;;;;;;;4.93;4.63;;;22.50;99.90;;;;;;5118370;27;20432;-67
2022/06/24 06:50:31;;;;;;;5.40;5.00;;;22.50;99.90;;;;;;5128185;27;20460;-67
2022/06/24 06:52:56;;;;;;;4.70;4.50;;;22.60;99.90;;;;;;5112505;28;20425;-67
2022/06/24 06:55:22;;;;;;;6.00;5.60;;;22.60;99.90;;;;;;5122796;27;20818;-67
2022/06/24 06:57:48;;;;;;;5.00;4.60;;;22.60;99.90;;;;;;5113292;27;20199;-67
2022/06/24 07:00:15;;;;;;;5.03;4.73;;;22.70;99.90;;;;;;5115378;27;20211;-67
2022/06/24 07:02:41;;;;;;;4.57;4.27;;;22.70;99.90;;;;;;5115854;27;20235;-67
2022/06/24 07:05:07;;;;;;;5.50;4.93;;;22.70;99.90;;;;;;5116661;27;20927;-67
2022/06/24 07:07:34;;;;;;;4.90;4.03;;;22.60;99.90;;;;;;5130108;27;20503;-67
2022/06/24 07:10:00;;;;;;;4.20;3.90;;;22.70;99.90;;;;;;5125032;27;20432;-67
2022/06/24 07:12:26;;;;;;;4.73;4.33;;;22.80;99.90;;;;;;5128967;27;20443;-67
2022/06/24 07:14:52;;;;;;;6.00;4.63;;;22.70;99.90;;;;;;5107929;27;20815;-68
2022/06/24 07:17:18;;;;;;;4.87;4.57;;;22.60;99.90;;;;;;5102432;28;20433;-67
2022/06/24 07:19:45;;;;;;;3.83;3.63;;;22.70;99.90;;;;;;5112465;28;20766;-67
2022/06/24 07:22:11;;;;;;;7.43;3.83;;;22.70;99.90;;;;;;5113359;28;20897;-67
2022/06/24 07:24:37;;;;;;;4.60;4.03;;;22.70;99.90;;;;;;5111789;28;20440;-69
2022/06/24 07:27:05;;;;;;;4.30;4.00;;;22.60;99.90;;;;;;5103097;28;20893;-67
2022/06/24 07:29:33;;;;;;;4.03;3.83;;;22.50;99.90;;;;;;5112316;28;20199;-67
2022/06/24 07:31:59;;;;;;;4.37;4.07;;;22.50;99.90;;;;;;5112463;28;20409;-67
2022/06/24 07:34:26;;;;;;;4.80;4.47;;;22.40;99.90;;;;;;5124122;28;20477;-67
2022/06/24 07:36:53;;;;;;;4.47;3.60;;;22.10;99.90;;;;;;5126189;28;20852;-66
2022/06/24 07:39:19;;;;;;;3.70;3.40;;;22.20;99.90;;;;;;5096645;28;20815;-67
2022/06/24 07:41:44;;;;;;;4.03;3.70;;;22.10;99.90;;;;;;5129315;28;20433;-67
2022/06/24 07:44:10;;;;;;;4.63;4.00;;;22.20;99.90;;;;;;5121336;28;20436;-67
2022/06/24 07:46:36;;;;;;;4.23;3.73;;;22.20;99.90;;;;;;5114297;28;20456;-67
2022/06/24 07:49:02;;;;;;;4.33;3.93;;;22.30;99.90;;;;;;5119421;27;20175;-67
2022/06/24 07:51:28;;;;;;;4.50;4.07;;;22.40;99.90;;;;;;5126524;27;20172;-67
2022/06/24 07:53:54;;;;;;;4.13;3.77;;;22.30;99.90;;;;;;5123605;27;20470;-68
2022/06/24 07:59:05;;;;;;;4.30;3.97;;;22.50;99.90;;;;;;5130057;27;20172;-67
2022/06/24 08:01:33;;;;;;;4.10;3.90;;;22.50;99.90;;;;;;5116615;28;20437;-67
2022/06/24 08:03:59;;;;;;;3.90;3.60;;;22.60;99.90;;;;;;5130796;27;20428;-67
2022/06/24 08:06:25;;;;;;;4.53;4.13;;;22.60;99.90;;;;;;5135618;27;20428;-67
2022/06/24 08:08:50;;;;;;;4.87;4.57;;;22.70;99.90;;;;;;5126373;27;20520;-67
2022/06/24 08:11:16;;;;;;;4.27;3.90;;;22.80;99.90;;;;;;5119283;27;20178;-67
2022/06/24 08:13:42;;;;;;;4.43;4.03;;;22.90;99.90;;;;;;5123059;27;20206;-68
2022/06/24 08:16:08;;;;;;;4.57;4.27;;;23.10;99.90;;;;;;5116114;27;20548;-66
2022/06/24 08:18:33;;;;;;;5.10;4.70;;;23.20;99.90;;;;;;5115999;27;20635;-67
2022/06/24 08:20:59;;;;;;;5.00;3.97;;;23.30;99.90;;;;;;5118076;27;20226;-68
2022/06/24 08:23:25;;;;;;;5.60;4.50;;;23.40;99.90;;;;;;5123853;27;20187;-70
2022/06/24 08:25:50;;;;;;;6.83;4.97;;;23.50;99.90;;;;;;5113513;28;20179;-68
2022/06/24 08:28:17;;;;;;;4.33;4.13;;;23.60;99.90;;;;;;5115883;27;20195;-68
2022/06/24 08:30:43;;;;;;;4.50;4.20;;;23.70;99.90;;;;;;5116257;27;20482;-71
2022/06/24 08:33:09;;;;;;;5.80;4.30;;;23.80;99.90;;;;;;5117466;27;20184;-67
2022/06/24 08:35:35;;;;;;;6.50;4.77;;;23.80;99.90;;;;;;5113165;27;20675;-68
2022/06/24 08:38:01;;;;;;;5.10;4.60;;;23.90;99.90;;;;;;5105164;28;20479;-68
2022/06/24 08:40:28;;;;;;;6.00;5.50;;;24.00;99.90;;;;;;5110653;27;20188;-68
2022/06/24 08:42:57;;;;;;;4.20;3.90;;;24.00;99.90;;;;;;5106709;28;20296;-68
2022/06/24 08:45:23;;;;;;;5.20;4.80;;;24.10;99.90;;;;;;5115593;28;20402;-68
2022/06/24 08:47:49;;;;;;;5.23;4.83;;;24.10;99.90;;;;;;5119848;27;20424;-68
2022/06/24 08:50:16;;;;;;;5.40;4.90;;;24.10;99.90;;;;;;5134527;27;20485;-67
2022/06/24 08:52:49;;;;;;;5.77;4.00;;;24.00;99.90;;;;;;5127217;27;20570;-67
2022/06/24 08:55:17;;;;;;;5.97;5.57;;;24.00;99.90;;;;;;5136064;27;20443;-67
2022/06/24 08:57:44;;;;;;;4.93;4.00;;;23.90;99.90;;;;;;5133639;27;20422;-67
2022/06/24 09:00:10;;;;;;;5.33;4.10;;;23.90;99.90;;;;;;5135346;27;20417;-67
2022/06/24 09:02:36;;;;;;;4.60;4.30;;;24.00;99.90;;;;;;5135032;27;20433;-67
2022/06/24 09:05:14;;;;;;;5.47;5.00;;;23.90;99.90;;;;;;5134828;27;20455;-67
2022/06/24 09:07:39;;;;;;;6.30;5.00;;;23.90;99.90;;;;;;5108138;28;20584;-67
2022/06/24 09:10:10;;;;;;;4.77;4.37;;;23.80;99.90;;;;;;5105676;28;20433;-67
2022/06/24 09:12:41;;;;;;;4.93;4.53;;;23.80;99.90;;;;;;5114349;28;20167;-67
2022/06/24 09:15:09;;;;;;;5.73;5.23;;;23.80;99.90;;;;;;5114768;28;20453;-67
2022/06/24 09:17:37;;;;;;;5.57;5.00;;;23.80;99.90;;;;;;5115331;28;20413;-67
2022/06/24 09:20:19;;;;;;;7.80;5.40;;;23.80;99.90;;;;;;5114637;28;20441;-67
2022/06/24 09:22:45;;;;;;;4.93;4.53;;;23.80;99.90;;;;;;5114911;28;20467;-71
2022/06/24 09:25:11;;;;;;;5.20;4.37;;;23.80;99.90;;;;;;5115257;28;20397;-67
2022/06/24 09:27:43;;;;;;;4.77;4.33;;;23.80;99.90;;;;;;5096991;28;20182;-67
2022/06/24 09:30:19;;;;;;;4.23;3.93;;;23.90;99.90;;;;;;5113058;28;20429;-67
2022/06/24 09:32:55;;;;;;;5.07;4.57;;;24.00;99.90;;;;;;5114093;28;20805;-69
2022/06/24 09:35:24;;;;;;;6.00;5.00;;;24.10;99.90;;;;;;5113864;28;20964;-67
2022/06/24 09:37:51;;;;;;;5.10;4.70;;;24.10;99.90;;;;;;5114394;28;20410;-68
2022/06/24 09:40:18;;;;;;;4.70;4.40;;;24.20;99.90;;;;;;5114883;28;20405;-67
2022/06/24 09:42:59;;;;;;;5.00;4.70;;;24.20;99.90;;;;;;5114937;28;20426;-67
2022/06/24 09:45:45;;;;;;;7.13;6.40;;;24.20;99.90;;;;;;5114897;28;20398;-67
2022/06/24 09:48:12;;;;;;;7.10;6.50;;;24.10;99.90;;;;;;5113583;28;20417;-67
2022/06/24 09:50:40;;;;;;;6.73;6.13;;;24.00;99.90;;;;;;5114412;28;20905;-67
2022/06/24 09:53:07;;;;;;;6.83;6.43;;;23.90;99.90;;;;;;5113858;28;20719;-67
2022/06/24 09:55:34;;;;;;;6.00;5.60;;;23.80;99.90;;;;;;5114606;28;20537;-67
2022/06/24 09:57:59;;;;;;;5.20;4.90;;;23.70;99.90;;;;;;5114212;28;20410;-67
2022/06/24 10:00:41;;;;;;;5.20;4.80;;;23.60;99.90;;;;;;5112373;28;20436;-67
2022/06/24 10:03:12;;;;;;;4.60;3.83;;;23.60;99.90;;;;;;5113941;28;20437;-67
2022/06/24 10:05:47;;;;;;;3.80;3.60;;;23.50;99.90;;;;;;5114473;28;20401;-67
2022/06/24 10:08:15;;;;;;;3.40;3.20;;;23.50;99.90;;;;;;5114591;28;20381;-67
2022/06/24 10:10:47;;;;;;;3.80;3.60;;;23.40;99.90;;;;;;5114292;28;20409;-67
2022/06/24 10:13:34;;;;;;;3.93;3.70;;;23.30;99.90;;;;;;5113194;28;20410;-67
2022/06/24 10:16:06;;;;;;;3.80;3.50;;;23.40;99.90;;;;;;5113553;28;20449;-67
2022/06/24 10:18:46;;;;;;;5.00;4.80;;;23.40;99.90;;;;;;5114455;28;20445;-67
2022/06/24 10:21:12;;;;;;;4.83;4.60;;;23.40;99.90;;;;;;5111979;28;20487;-67
2022/06/24 10:23:43;;;;;;;5.07;4.87;;;23.40;99.90;;;;;;5114194;28;20418;-67
2022/06/24 10:26:38;;;;;;;5.73;5.50;;;23.30;99.90;;;;;;5113581;28;20410;-67
2022/06/24 10:29:04;;;;;;;4.47;4.27;;;23.20;99.90;;;;;;5113118;28;20920;-67
2022/06/24 10:31:45;;;;;;;4.50;4.23;;;23.20;99.90;;;;;;5113009;28;20461;-67
2022/06/24 10:34:13;;;;;;;4.80;4.50;;;23.20;99.90;;;;;;5113162;28;20172;-67
2022/06/24 10:36:38;;;;;;;3.90;3.70;;;23.10;99.90;;;;;;5113860;28;20467;-69
2022/06/24 10:39:16;;;;;;;5.50;5.20;;;23.10;99.90;;;;;;5112910;28;20417;-67
2022/06/24 10:41:42;;;;;;;4.33;4.23;;;23.30;99.90;;;;;;5113454;28;20441;-67
2022/06/24 10:44:33;;;;;;;4.77;4.47;;;23.40;99.90;;;;;;5113429;28;20906;-67
2022/06/24 10:47:04;;;;;;;4.40;4.20;;;23.60;99.90;;;;;;5112865;28;20804;-67
2022/06/24 10:49:52;;;;;;;5.60;5.30;;;23.90;99.90;;;;;;5113364;28;20436;-67
2022/06/24 10:52:37;;;;;;;3.70;3.40;;;24.20;99.90;;;;;;5113635;28;20402;-67
2022/06/24 10:55:15;;;;;;;4.20;3.93;;;24.50;99.90;;;;;;5112686;28;20525;-67
2022/06/24 10:57:52;;;;;;;3.77;3.57;;;24.80;99.90;;;;;;5113547;28;20463;-67
2022/06/24 11:00:29;;;;;;;4.77;4.50;;;25.00;99.90;;;;;;5112257;28;20465;-67
2022/06/24 11:03:04;;;;;;;4.17;3.97;;;25.10;99.90;;;;;;5112878;28;20456;-67
2022/06/24 11:05:35;;;;;;;3.83;3.50;;;25.20;99.90;;;;;;5113654;28;20423;-67
2022/06/24 11:08:02;;;;;;;3.60;3.30;;;25.20;99.90;;;;;;5113120;28;20401;-68
2022/06/24 11:10:31;;;;;;;3.50;3.30;;;25.10;99.90;;;;;;5113038;28;20425;-68
2022/06/24 11:13:00;;;;;;;3.83;3.53;;;25.00;99.90;;;;;;5109593;28;20801;-68
2022/06/24 11:15:54;;;;;;;3.40;3.20;;;24.90;99.90;;;;;;5112030;28;20544;-68
2022/06/24 11:18:25;;;;;;;3.20;3.00;;;24.70;99.90;;;;;;5113022;28;20426;-67
2022/06/24 11:20:57;;;;;;;4.37;3.47;;;24.70;99.90;;;;;;5112843;28;20461;-67
2022/06/24 11:23:25;;;;;;;3.37;3.17;;;24.60;99.90;;;;;;5113250;28;20488;-67
2022/06/24 11:25:55;;;;;;;4.13;3.83;;;24.50;99.90;;;;;;5112485;28;20894;-67
2022/06/24 11:28:25;;;;;;;4.03;3.63;;;24.50;99.90;;;;;;5111215;28;20468;-67
2022/06/24 11:30:54;;;;;;;4.07;3.77;;;24.50;99.90;;;;;;5112115;28;20468;-67
2022/06/24 11:33:21;;;;;;;5.10;4.70;;;24.50;99.90;;;;;;5113208;28;20429;-68
2022/06/24 11:35:47;;;;;;;5.30;5.00;;;24.50;99.90;;;;;;5113032;28;20441;-68
2022/06/24 11:38:14;;;;;;;5.57;5.17;;;24.50;99.90;;;;;;5112537;28;20417;-68
2022/06/24 11:40:41;;;;;;;6.80;6.30;;;24.70;99.90;;;;;;5113004;28;20417;-66
2022/06/24 11:43:12;;;;;;;6.37;5.97;;;24.80;99.90;;;;;;5112365;28;20752;-69
2022/06/24 11:45:44;;;;;;;7.00;6.50;;;24.90;99.90;;;;;;5112557;28;21000;-67
2022/06/24 11:48:12;;;;;;;8.10;7.57;;;25.10;99.90;;;;;;5112363;28;20815;-66
2022/06/24 11:50:39;;;;;;;7.43;6.83;;;25.40;99.90;;;;;;5112977;28;20402;-67
2022/06/24 11:53:07;;;;;;;7.90;7.20;;;25.60;99.90;;;;;;5111058;28;20416;-67
2022/06/24 11:55:40;;;;;;;8.53;7.93;;;25.70;99.90;;;;;;5112797;28;20453;-67
2022/06/24 11:58:07;;;;;;;7.07;6.60;;;25.80;99.90;;;;;;5110588;28;20457;-68
2022/06/24 12:00:36;;;;;;;7.50;6.90;;;25.90;99.90;;;;;;5112218;28;20494;-68
2022/06/24 12:03:07;;;;;;;7.50;7.00;;;26.00;99.90;;;;;;5112283;28;20405;-67
2022/06/24 12:05:33;;;;;;;6.87;6.30;;;26.20;99.90;;;;;;5113174;28;20451;-67
2022/06/24 12:08:00;;;;;;;7.57;6.97;;;26.30;99.90;;;;;;5110965;28;20405;-67
2022/06/24 12:10:26;;;;;;;6.53;5.93;;;26.40;99.70;;;;;;5112712;28;20412;-67
2022/06/24 12:13:03;;;;;;;6.60;6.00;;;26.50;99.80;;;;;;5112635;28;20800;-67
2022/06/24 12:15:33;;;;;;;5.67;5.20;;;26.60;99.20;;;;;;5112556;28;20445;-67
2022/06/24 12:17:59;;;;;;;5.97;5.57;;;26.70;98.70;;;;;;5110455;28;20410;-68
2022/06/24 12:20:28;;;;;;;6.20;5.90;;;26.80;98.50;;;;;;5112411;28;20456;-68
2022/06/24 12:23:20;;;;;;;6.03;5.63;;;26.80;97.30;;;;;;5106961;28;20172;-68
2022/06/24 12:25:48;;;;;;;5.70;5.30;;;26.80;97.40;;;;;;5113015;28;20424;-67
2022/06/24 12:28:27;;;;;;;5.40;5.10;;;26.70;96.40;;;;;;5112151;28;20405;-68
2022/06/24 12:31:10;;;;;;;5.70;5.40;;;26.50;96.50;;;;;;5112531;28;20413;-68
2022/06/24 12:33:57;;;;;;;6.17;5.83;;;26.40;96.80;;;;;;5112309;28;20451;-67
2022/06/24 12:36:33;;;;;;;6.10;5.70;;;26.30;96.90;;;;;;5113013;28;20472;-68
2022/06/24 12:39:06;;;;;;;5.67;5.27;;;26.20;96.90;;;;;;5115669;28;20485;-68
2022/06/24 12:41:42;;;;;;;6.37;5.83;;;26.20;98.50;;;;;;5098039;28;20462;-68
2022/06/24 12:44:08;;;;;;;6.27;5.87;;;26.10;99.00;;;;;;5115550;28;20393;-68
2022/06/24 12:46:34;;;;;;;6.40;5.80;;;26.10;98.70;;;;;;5113640;28;20421;-68
2022/06/24 12:51:47;;;;;;;5.57;5.27;;;26.10;99.00;;;;;;5115838;28;20186;-68
2022/06/24 12:54:15;;;;;;;5.50;4.53;;;26.20;97.90;;;;;;5115196;28;20941;-68
2022/06/24 12:56:42;;;;;;;5.00;4.70;;;26.20;96.10;;;;;;5115892;28;20436;-68
2022/06/24 12:59:08;;;;;;;5.90;5.60;;;26.30;96.30;;;;;;5114910;28;20418;-68
2022/06/24 13:01:42;;;;;;;7.07;5.90;;;26.40;95.70;;;;;;5115675;28;20433;-68
2022/06/24 13:04:08;;;;;;;4.87;4.57;;;26.40;95.10;;;;;;5115093;28;20413;-68